sensor_id;sensor_type;location;lat;lon;timestamp;P1;durP1;ratioP1;P2;durP2;ratioP2
13335;SDS011;6737;51.480;11.962;2022-11-12T00:00:35;6.40;;;4.07;;
13335;SDS011;6737;51.480;11.962;2022-11-12T00:03:01;5.80;;;3.80;;
13335;SDS011;6737;51.480;11.962;2022-11-12T00:05:27;5.23;;;3.53;;
13335;SDS011;6737;51.480;11.962;2022-11-12T00:07:54;5.03;;;3.30;;
13335;SDS011;6737;51.480;11.962;2022-11-12T00:10:20;4.67;;;2.87;;
13335;SDS011;6737;51.480;11.962;2022-11-12T00:12:46;6.30;;;3.13;;
13335;SDS011;6737;51.480;11.962;2022-11-12T00:15:12;5.00;;;3.47;;
13335;SDS011;6737;51.480;11.962;2022-11-12T00:17:38;3.47;;;2.70;;
13335;SDS011;6737;51.480;11.962;2022-11-12T00:20:04;3.90;;;3.10;;
13335;SDS011;6737;51.480;11.962;2022-11-12T00:22:31;5.23;;;3.13;;
13335;SDS011;6737;51.480;11.962;2022-11-12T00:24:57;3.93;;;2.70;;
13335;SDS011;6737;51.480;11.962;2022-11-12T00:27:23;3.77;;;3.13;;
13335;SDS011;6737;51.480;11.962;2022-11-12T00:29:49;3.73;;;2.77;;
13335;SDS011;6737;51.480;11.962;2022-11-12T00:32:14;4.30;;;3.27;;
13335;SDS011;6737;51.480;11.962;2022-11-12T00:34:40;6.57;;;3.80;;
13335;SDS011;6737;51.480;11.962;2022-11-12T00:37:06;9.33;;;3.50;;
13335;SDS011;6737;51.480;11.962;2022-11-12T00:39:32;5.50;;;3.67;;
13335;SDS011;6737;51.480;11.962;2022-11-12T00:41:58;5.53;;;3.60;;
13335;SDS011;6737;51.480;11.962;2022-11-12T00:44:24;5.47;;;3.30;;
13335;SDS011;6737;51.480;11.962;2022-11-12T00:46:49;5.97;;;3.47;;
13335;SDS011;6737;51.480;11.962;2022-11-12T00:49:15;5.70;;;3.57;;
13335;SDS011;6737;51.480;11.962;2022-11-12T00:51:41;4.77;;;3.20;;
13335;SDS011;6737;51.480;11.962;2022-11-12T00:54:07;5.50;;;3.70;;
13335;SDS011;6737;51.480;11.962;2022-11-12T00:56:33;5.23;;;3.80;;
13335;SDS011;6737;51.480;11.962;2022-11-12T00:58:59;6.07;;;3.90;;
13335;SDS011;6737;51.480;11.962;2022-11-12T01:01:25;7.80;;;4.20;;
13335;SDS011;6737;51.480;11.962;2022-11-12T01:03:51;7.83;;;4.47;;
13335;SDS011;6737;51.480;11.962;2022-11-12T01:06:18;6.00;;;4.00;;
13335;SDS011;6737;51.480;11.962;2022-11-12T01:08:46;6.30;;;3.60;;
13335;SDS011;6737;51.480;11.962;2022-11-12T01:13:41;6.30;;;3.80;;
13335;SDS011;6737;51.480;11.962;2022-11-12T01:16:13;4.83;;;3.73;;
13335;SDS011;6737;51.480;11.962;2022-11-12T01:18:41;5.87;;;3.60;;
13335;SDS011;6737;51.480;11.962;2022-11-12T01:21:08;4.90;;;3.77;;
13335;SDS011;6737;51.480;11.962;2022-11-12T01:23:35;7.17;;;4.67;;
13335;SDS011;6737;51.480;11.962;2022-11-12T01:26:03;5.90;;;3.77;;
13335;SDS011;6737;51.480;11.962;2022-11-12T01:28:30;5.90;;;3.80;;
13335;SDS011;6737;51.480;11.962;2022-11-12T01:30:56;6.73;;;4.07;;
13335;SDS011;6737;51.480;11.962;2022-11-12T01:33:22;4.63;;;3.60;;
13335;SDS011;6737;51.480;11.962;2022-11-12T01:35:47;5.20;;;3.53;;
13335;SDS011;6737;51.480;11.962;2022-11-12T01:38:13;5.83;;;3.57;;
13335;SDS011;6737;51.480;11.962;2022-11-12T01:40:39;8.47;;;3.70;;
13335;SDS011;6737;51.480;11.962;2022-11-12T01:43:13;6.43;;;3.70;;
13335;SDS011;6737;51.480;11.962;2022-11-12T01:45:39;6.10;;;3.47;;
13335;SDS011;6737;51.480;11.962;2022-11-12T01:48:19;6.60;;;3.70;;
13335;SDS011;6737;51.480;11.962;2022-11-12T01:51:24;5.80;;;3.67;;
13335;SDS011;6737;51.480;11.962;2022-11-12T01:53:57;4.87;;;3.20;;
13335;SDS011;6737;51.480;11.962;2022-11-12T01:56:27;4.93;;;3.67;;
13335;SDS011;6737;51.480;11.962;2022-11-12T01:58:57;5.30;;;3.47;;
13335;SDS011;6737;51.480;11.962;2022-11-12T02:01:27;5.53;;;3.87;;
13335;SDS011;6737;51.480;11.962;2022-11-12T02:03:52;5.53;;;3.60;;
13335;SDS011;6737;51.480;11.962;2022-11-12T02:06:19;4.77;;;3.50;;
13335;SDS011;6737;51.480;11.962;2022-11-12T02:08:45;5.30;;;3.60;;
13335;SDS011;6737;51.480;11.962;2022-11-12T02:11:11;6.20;;;3.90;;
13335;SDS011;6737;51.480;11.962;2022-11-12T02:13:40;4.13;;;3.30;;
13335;SDS011;6737;51.480;11.962;2022-11-12T02:16:32;5.00;;;3.50;;
13335;SDS011;6737;51.480;11.962;2022-11-12T02:19:00;4.97;;;3.33;;
13335;SDS011;6737;51.480;11.962;2022-11-12T02:21:27;4.30;;;3.20;;
13335;SDS011;6737;51.480;11.962;2022-11-12T02:26:33;5.20;;;3.37;;
13335;SDS011;6737;51.480;11.962;2022-11-12T02:29:02;5.57;;;3.10;;
13335;SDS011;6737;51.480;11.962;2022-11-12T02:31:29;5.57;;;3.77;;
13335;SDS011;6737;51.480;11.962;2022-11-12T02:33:55;5.13;;;3.37;;
13335;SDS011;6737;51.480;11.962;2022-11-12T02:36:20;5.83;;;3.90;;
13335;SDS011;6737;51.480;11.962;2022-11-12T02:38:47;5.87;;;3.73;;
13335;SDS011;6737;51.480;11.962;2022-11-12T02:41:12;5.00;;;3.87;;
13335;SDS011;6737;51.480;11.962;2022-11-12T02:43:38;5.47;;;3.57;;
13335;SDS011;6737;51.480;11.962;2022-11-12T02:46:04;6.37;;;4.00;;
13335;SDS011;6737;51.480;11.962;2022-11-12T02:48:31;6.10;;;4.00;;
13335;SDS011;6737;51.480;11.962;2022-11-12T02:50:56;5.53;;;3.80;;
13335;SDS011;6737;51.480;11.962;2022-11-12T02:53:22;8.33;;;3.77;;
13335;SDS011;6737;51.480;11.962;2022-11-12T02:55:48;4.97;;;3.80;;
13335;SDS011;6737;51.480;11.962;2022-11-12T02:58:14;6.70;;;3.60;;
13335;SDS011;6737;51.480;11.962;2022-11-12T03:00:39;6.83;;;3.63;;
13335;SDS011;6737;51.480;11.962;2022-11-12T03:03:05;5.60;;;4.07;;
13335;SDS011;6737;51.480;11.962;2022-11-12T03:05:31;4.97;;;3.53;;
13335;SDS011;6737;51.480;11.962;2022-11-12T03:07:59;5.53;;;3.80;;
13335;SDS011;6737;51.480;11.962;2022-11-12T03:10:30;4.50;;;3.30;;
13335;SDS011;6737;51.480;11.962;2022-11-12T03:12:57;5.70;;;3.80;;
13335;SDS011;6737;51.480;11.962;2022-11-12T03:15:25;4.60;;;2.90;;
13335;SDS011;6737;51.480;11.962;2022-11-12T03:17:51;5.67;;;3.67;;
13335;SDS011;6737;51.480;11.962;2022-11-12T03:20:17;4.63;;;3.37;;
13335;SDS011;6737;51.480;11.962;2022-11-12T03:22:53;6.23;;;3.40;;
13335;SDS011;6737;51.480;11.962;2022-11-12T03:25:40;4.43;;;3.23;;
13335;SDS011;6737;51.480;11.962;2022-11-12T03:28:06;4.57;;;3.43;;
13335;SDS011;6737;51.480;11.962;2022-11-12T03:30:35;4.30;;;3.47;;
13335;SDS011;6737;51.480;11.962;2022-11-12T03:33:03;4.73;;;3.43;;
13335;SDS011;6737;51.480;11.962;2022-11-12T03:35:30;6.60;;;3.60;;
13335;SDS011;6737;51.480;11.962;2022-11-12T03:37:56;5.83;;;3.40;;
13335;SDS011;6737;51.480;11.962;2022-11-12T03:40:22;5.60;;;3.40;;
13335;SDS011;6737;51.480;11.962;2022-11-12T03:42:49;5.90;;;3.60;;
13335;SDS011;6737;51.480;11.962;2022-11-12T03:45:17;5.60;;;3.67;;
13335;SDS011;6737;51.480;11.962;2022-11-12T03:47:46;4.33;;;3.20;;
13335;SDS011;6737;51.480;11.962;2022-11-12T03:50:13;4.00;;;3.10;;
13335;SDS011;6737;51.480;11.962;2022-11-12T03:52:43;2.97;;;2.53;;
13335;SDS011;6737;51.480;11.962;2022-11-12T03:55:14;4.03;;;2.77;;
13335;SDS011;6737;51.480;11.962;2022-11-12T03:57:42;3.50;;;2.70;;
13335;SDS011;6737;51.480;11.962;2022-11-12T04:00:08;5.20;;;3.27;;
13335;SDS011;6737;51.480;11.962;2022-11-12T04:02:36;3.27;;;2.70;;
13335;SDS011;6737;51.480;11.962;2022-11-12T04:05:02;4.23;;;2.80;;
13335;SDS011;6737;51.480;11.962;2022-11-12T04:07:49;3.50;;;2.77;;
13335;SDS011;6737;51.480;11.962;2022-11-12T04:10:45;4.43;;;2.97;;
13335;SDS011;6737;51.480;11.962;2022-11-12T04:13:11;5.17;;;3.07;;
13335;SDS011;6737;51.480;11.962;2022-11-12T04:18:51;3.97;;;2.50;;
13335;SDS011;6737;51.480;11.962;2022-11-12T04:24:24;3.00;;;2.70;;
13335;SDS011;6737;51.480;11.962;2022-11-12T04:27:10;4.37;;;3.10;;
13335;SDS011;6737;51.480;11.962;2022-11-12T04:29:42;5.07;;;3.40;;
13335;SDS011;6737;51.480;11.962;2022-11-12T04:32:27;4.87;;;3.00;;
13335;SDS011;6737;51.480;11.962;2022-11-12T04:34:54;4.57;;;3.10;;
13335;SDS011;6737;51.480;11.962;2022-11-12T04:37:21;4.97;;;3.40;;
13335;SDS011;6737;51.480;11.962;2022-11-12T04:39:48;3.33;;;2.70;;
13335;SDS011;6737;51.480;11.962;2022-11-12T04:42:15;3.73;;;2.90;;
13335;SDS011;6737;51.480;11.962;2022-11-12T04:44:59;3.33;;;2.97;;
13335;SDS011;6737;51.480;11.962;2022-11-12T04:47:33;4.47;;;3.13;;
13335;SDS011;6737;51.480;11.962;2022-11-12T04:50:11;3.00;;;2.70;;
13335;SDS011;6737;51.480;11.962;2022-11-12T04:52:39;4.33;;;2.80;;
13335;SDS011;6737;51.480;11.962;2022-11-12T04:55:05;3.60;;;2.77;;
13335;SDS011;6737;51.480;11.962;2022-11-12T04:57:31;3.40;;;2.90;;
13335;SDS011;6737;51.480;11.962;2022-11-12T04:59:57;4.30;;;3.07;;
13335;SDS011;6737;51.480;11.962;2022-11-12T05:02:23;4.13;;;2.80;;
13335;SDS011;6737;51.480;11.962;2022-11-12T05:04:49;4.50;;;3.50;;
13335;SDS011;6737;51.480;11.962;2022-11-12T05:07:15;3.53;;;2.93;;
13335;SDS011;6737;51.480;11.962;2022-11-12T05:09:41;3.83;;;2.93;;
13335;SDS011;6737;51.480;11.962;2022-11-12T05:12:08;3.87;;;2.97;;
13335;SDS011;6737;51.480;11.962;2022-11-12T05:14:34;8.20;;;3.13;;
13335;SDS011;6737;51.480;11.962;2022-11-12T05:17:00;4.03;;;3.30;;
13335;SDS011;6737;51.480;11.962;2022-11-12T05:19:26;6.07;;;3.50;;
13335;SDS011;6737;51.480;11.962;2022-11-12T05:21:52;4.87;;;3.20;;
13335;SDS011;6737;51.480;11.962;2022-11-12T05:24:31;4.97;;;3.33;;
13335;SDS011;6737;51.480;11.962;2022-11-12T05:27:10;4.53;;;3.40;;
13335;SDS011;6737;51.480;11.962;2022-11-12T05:29:37;4.10;;;3.03;;
13335;SDS011;6737;51.480;11.962;2022-11-12T05:32:04;5.10;;;2.93;;
13335;SDS011;6737;51.480;11.962;2022-11-12T05:34:31;5.37;;;3.13;;
13335;SDS011;6737;51.480;11.962;2022-11-12T05:36:56;4.80;;;3.10;;
13335;SDS011;6737;51.480;11.962;2022-11-12T05:39:22;4.43;;;3.23;;
13335;SDS011;6737;51.480;11.962;2022-11-12T05:41:48;3.70;;;3.00;;
13335;SDS011;6737;51.480;11.962;2022-11-12T05:44:14;5.63;;;3.17;;
13335;SDS011;6737;51.480;11.962;2022-11-12T05:46:40;4.13;;;3.00;;
13335;SDS011;6737;51.480;11.962;2022-11-12T05:49:05;4.30;;;3.13;;
13335;SDS011;6737;51.480;11.962;2022-11-12T05:51:31;4.63;;;3.30;;
13335;SDS011;6737;51.480;11.962;2022-11-12T05:53:57;4.03;;;3.10;;
13335;SDS011;6737;51.480;11.962;2022-11-12T05:56:23;4.17;;;3.17;;
13335;SDS011;6737;51.480;11.962;2022-11-12T05:58:49;5.17;;;3.27;;
13335;SDS011;6737;51.480;11.962;2022-11-12T06:01:15;3.00;;;2.60;;
13335;SDS011;6737;51.480;11.962;2022-11-12T06:03:40;4.60;;;3.20;;
13335;SDS011;6737;51.480;11.962;2022-11-12T06:06:06;3.87;;;2.73;;
13335;SDS011;6737;51.480;11.962;2022-11-12T06:08:32;4.50;;;2.83;;
13335;SDS011;6737;51.480;11.962;2022-11-12T06:10:58;3.50;;;3.00;;
13335;SDS011;6737;51.480;11.962;2022-11-12T06:13:24;3.70;;;2.80;;
13335;SDS011;6737;51.480;11.962;2022-11-12T06:15:53;4.43;;;3.50;;
13335;SDS011;6737;51.480;11.962;2022-11-12T06:18:20;3.73;;;2.97;;
13335;SDS011;6737;51.480;11.962;2022-11-12T06:20:47;4.20;;;3.10;;
13335;SDS011;6737;51.480;11.962;2022-11-12T06:23:31;4.37;;;3.20;;
13335;SDS011;6737;51.480;11.962;2022-11-12T06:25:57;3.87;;;2.83;;
13335;SDS011;6737;51.480;11.962;2022-11-12T06:28:23;5.17;;;3.27;;
13335;SDS011;6737;51.480;11.962;2022-11-12T06:30:49;3.73;;;2.90;;
13335;SDS011;6737;51.480;11.962;2022-11-12T06:33:15;4.87;;;3.03;;
13335;SDS011;6737;51.480;11.962;2022-11-12T06:35:40;3.47;;;2.70;;
13335;SDS011;6737;51.480;11.962;2022-11-12T06:38:06;4.83;;;2.80;;
13335;SDS011;6737;51.480;11.962;2022-11-12T06:40:32;3.57;;;2.50;;
13335;SDS011;6737;51.480;11.962;2022-11-12T06:42:59;3.40;;;2.73;;
13335;SDS011;6737;51.480;11.962;2022-11-12T06:45:24;3.80;;;2.73;;
13335;SDS011;6737;51.480;11.962;2022-11-12T06:47:50;3.07;;;2.37;;
13335;SDS011;6737;51.480;11.962;2022-11-12T06:50:16;3.67;;;2.70;;
13335;SDS011;6737;51.480;11.962;2022-11-12T06:52:42;3.03;;;2.37;;
13335;SDS011;6737;51.480;11.962;2022-11-12T06:55:08;2.70;;;2.40;;
13335;SDS011;6737;51.480;11.962;2022-11-12T06:57:34;2.97;;;2.40;;
13335;SDS011;6737;51.480;11.962;2022-11-12T06:59:59;3.23;;;2.50;;
13335;SDS011;6737;51.480;11.962;2022-11-12T07:02:25;2.77;;;2.13;;
13335;SDS011;6737;51.480;11.962;2022-11-12T07:04:51;3.60;;;2.70;;
13335;SDS011;6737;51.480;11.962;2022-11-12T07:07:17;3.20;;;2.60;;
13335;SDS011;6737;51.480;11.962;2022-11-12T07:09:42;3.07;;;2.50;;
13335;SDS011;6737;51.480;11.962;2022-11-12T07:12:08;4.07;;;2.10;;
13335;SDS011;6737;51.480;11.962;2022-11-12T07:14:34;3.30;;;2.53;;
13335;SDS011;6737;51.480;11.962;2022-11-12T07:16:59;3.53;;;2.77;;
13335;SDS011;6737;51.480;11.962;2022-11-12T07:19:25;3.00;;;2.50;;
13335;SDS011;6737;51.480;11.962;2022-11-12T07:21:51;3.17;;;2.57;;
13335;SDS011;6737;51.480;11.962;2022-11-12T07:24:17;4.00;;;2.70;;
13335;SDS011;6737;51.480;11.962;2022-11-12T07:26:42;3.37;;;2.70;;
13335;SDS011;6737;51.480;11.962;2022-11-12T07:29:08;4.20;;;3.07;;
13335;SDS011;6737;51.480;11.962;2022-11-12T07:31:34;4.37;;;3.17;;
13335;SDS011;6737;51.480;11.962;2022-11-12T07:34:00;4.73;;;2.80;;
13335;SDS011;6737;51.480;11.962;2022-11-12T07:36:25;9.23;;;3.27;;
13335;SDS011;6737;51.480;11.962;2022-11-12T07:38:52;4.23;;;2.83;;
13335;SDS011;6737;51.480;11.962;2022-11-12T07:41:19;5.27;;;3.20;;
13335;SDS011;6737;51.480;11.962;2022-11-12T07:43:49;4.70;;;3.03;;
13335;SDS011;6737;51.480;11.962;2022-11-12T07:46:19;4.47;;;3.10;;
13335;SDS011;6737;51.480;11.962;2022-11-12T07:48:47;4.30;;;2.97;;
13335;SDS011;6737;51.480;11.962;2022-11-12T07:51:13;4.33;;;2.87;;
13335;SDS011;6737;51.480;11.962;2022-11-12T07:53:41;3.93;;;2.80;;
13335;SDS011;6737;51.480;11.962;2022-11-12T07:56:09;4.93;;;3.23;;
13335;SDS011;6737;51.480;11.962;2022-11-12T07:58:37;7.10;;;3.97;;
13335;SDS011;6737;51.480;11.962;2022-11-12T08:01:10;5.00;;;3.60;;
13335;SDS011;6737;51.480;11.962;2022-11-12T08:03:47;6.10;;;3.70;;
13335;SDS011;6737;51.480;11.962;2022-11-12T08:06:12;5.90;;;3.77;;
13335;SDS011;6737;51.480;11.962;2022-11-12T08:08:38;5.67;;;4.07;;
13335;SDS011;6737;51.480;11.962;2022-11-12T08:11:04;6.50;;;4.00;;
13335;SDS011;6737;51.480;11.962;2022-11-12T08:13:30;5.60;;;3.80;;
13335;SDS011;6737;51.480;11.962;2022-11-12T08:15:56;6.83;;;4.10;;
13335;SDS011;6737;51.480;11.962;2022-11-12T08:18:23;6.83;;;4.13;;
13335;SDS011;6737;51.480;11.962;2022-11-12T08:20:49;5.53;;;3.90;;
13335;SDS011;6737;51.480;11.962;2022-11-12T08:23:15;6.17;;;4.03;;
13335;SDS011;6737;51.480;11.962;2022-11-12T08:25:41;5.37;;;4.00;;
13335;SDS011;6737;51.480;11.962;2022-11-12T08:28:06;6.07;;;3.90;;
13335;SDS011;6737;51.480;11.962;2022-11-12T08:30:32;5.40;;;3.67;;
13335;SDS011;6737;51.480;11.962;2022-11-12T08:32:59;5.60;;;3.80;;
13335;SDS011;6737;51.480;11.962;2022-11-12T08:35:28;4.60;;;3.53;;
13335;SDS011;6737;51.480;11.962;2022-11-12T08:38:01;7.10;;;4.00;;
13335;SDS011;6737;51.480;11.962;2022-11-12T08:40:29;7.67;;;4.00;;
13335;SDS011;6737;51.480;11.962;2022-11-12T08:42:57;7.67;;;3.80;;
13335;SDS011;6737;51.480;11.962;2022-11-12T08:45:30;9.70;;;4.53;;
13335;SDS011;6737;51.480;11.962;2022-11-12T08:47:58;6.07;;;3.97;;
13335;SDS011;6737;51.480;11.962;2022-11-12T08:50:25;6.03;;;4.13;;
13335;SDS011;6737;51.480;11.962;2022-11-12T08:52:51;8.20;;;4.60;;
13335;SDS011;6737;51.480;11.962;2022-11-12T08:55:17;5.70;;;4.07;;
13335;SDS011;6737;51.480;11.962;2022-11-12T08:57:43;6.07;;;4.27;;
13335;SDS011;6737;51.480;11.962;2022-11-12T09:00:10;8.20;;;4.33;;
13335;SDS011;6737;51.480;11.962;2022-11-12T09:02:37;5.10;;;4.13;;
13335;SDS011;6737;51.480;11.962;2022-11-12T09:05:03;6.70;;;4.70;;
13335;SDS011;6737;51.480;11.962;2022-11-12T09:07:29;6.60;;;4.87;;
13335;SDS011;6737;51.480;11.962;2022-11-12T09:09:56;7.07;;;4.60;;
13335;SDS011;6737;51.480;11.962;2022-11-12T09:12:22;7.77;;;5.00;;
13335;SDS011;6737;51.480;11.962;2022-11-12T09:14:48;9.57;;;5.30;;
13335;SDS011;6737;51.480;11.962;2022-11-12T09:17:14;6.73;;;5.07;;
13335;SDS011;6737;51.480;11.962;2022-11-12T09:19:40;9.13;;;4.77;;
13335;SDS011;6737;51.480;11.962;2022-11-12T09:22:06;7.17;;;5.70;;
13335;SDS011;6737;51.480;11.962;2022-11-12T09:24:33;9.70;;;6.93;;
13335;SDS011;6737;51.480;11.962;2022-11-12T09:26:58;7.60;;;5.03;;
13335;SDS011;6737;51.480;11.962;2022-11-12T09:29:25;6.63;;;4.57;;
13335;SDS011;6737;51.480;11.962;2022-11-12T09:31:51;7.70;;;4.60;;
13335;SDS011;6737;51.480;11.962;2022-11-12T09:34:16;6.53;;;4.57;;
13335;SDS011;6737;51.480;11.962;2022-11-12T09:36:42;7.97;;;4.70;;
13335;SDS011;6737;51.480;11.962;2022-11-12T09:39:08;8.53;;;5.20;;
13335;SDS011;6737;51.480;11.962;2022-11-12T09:41:35;9.07;;;4.80;;
13335;SDS011;6737;51.480;11.962;2022-11-12T09:44:04;5.97;;;4.40;;
13335;SDS011;6737;51.480;11.962;2022-11-12T09:46:38;8.03;;;4.93;;
13335;SDS011;6737;51.480;11.962;2022-11-12T09:51:41;8.53;;;5.20;;
13335;SDS011;6737;51.480;11.962;2022-11-12T09:54:23;7.70;;;4.50;;
13335;SDS011;6737;51.480;11.962;2022-11-12T09:56:55;10.43;;;4.97;;
13335;SDS011;6737;51.480;11.962;2022-11-12T09:59:21;7.40;;;4.50;;
13335;SDS011;6737;51.480;11.962;2022-11-12T10:09:19;5.67;;;4.20;;
13335;SDS011;6737;51.480;11.962;2022-11-12T10:12:00;7.33;;;4.87;;
13335;SDS011;6737;51.480;11.962;2022-11-12T10:17:20;6.87;;;4.77;;
13335;SDS011;6737;51.480;11.962;2022-11-12T10:20:19;6.60;;;4.40;;
13335;SDS011;6737;51.480;11.962;2022-11-12T10:25:26;9.17;;;5.07;;
13335;SDS011;6737;51.480;11.962;2022-11-12T10:27:53;8.03;;;5.00;;
13335;SDS011;6737;51.480;11.962;2022-11-12T10:30:21;7.30;;;4.97;;
13335;SDS011;6737;51.480;11.962;2022-11-12T10:32:49;8.07;;;4.93;;
13335;SDS011;6737;51.480;11.962;2022-11-12T10:35:17;6.50;;;4.97;;
13335;SDS011;6737;51.480;11.962;2022-11-12T10:37:48;5.70;;;4.17;;
13335;SDS011;6737;51.480;11.962;2022-11-12T10:40:27;7.27;;;4.87;;
13335;SDS011;6737;51.480;11.962;2022-11-12T10:42:59;9.07;;;5.30;;
13335;SDS011;6737;51.480;11.962;2022-11-12T10:45:28;6.43;;;4.53;;
13335;SDS011;6737;51.480;11.962;2022-11-12T10:47:55;10.97;;;4.83;;
13335;SDS011;6737;51.480;11.962;2022-11-12T10:50:23;7.37;;;4.30;;
13335;SDS011;6737;51.480;11.962;2022-11-12T10:55:27;6.67;;;4.47;;
13335;SDS011;6737;51.480;11.962;2022-11-12T10:58:05;6.23;;;4.70;;
13335;SDS011;6737;51.480;11.962;2022-11-12T11:00:53;6.17;;;4.67;;
13335;SDS011;6737;51.480;11.962;2022-11-12T11:03:24;8.73;;;4.80;;
13335;SDS011;6737;51.480;11.962;2022-11-12T11:05:59;6.83;;;4.70;;
13335;SDS011;6737;51.480;11.962;2022-11-12T11:08:31;10.40;;;6.83;;
13335;SDS011;6737;51.480;11.962;2022-11-12T11:11:09;8.30;;;5.67;;
13335;SDS011;6737;51.480;11.962;2022-11-12T11:13:45;10.10;;;6.57;;
13335;SDS011;6737;51.480;11.962;2022-11-12T11:16:14;8.43;;;5.60;;
13335;SDS011;6737;51.480;11.962;2022-11-12T11:18:44;10.47;;;6.23;;
13335;SDS011;6737;51.480;11.962;2022-11-12T11:21:29;8.60;;;5.70;;
13335;SDS011;6737;51.480;11.962;2022-11-12T11:26:57;7.57;;;5.37;;
13335;SDS011;6737;51.480;11.962;2022-11-12T11:32:24;6.30;;;4.53;;
13335;SDS011;6737;51.480;11.962;2022-11-12T11:40:37;7.40;;;5.13;;
13335;SDS011;6737;51.480;11.962;2022-11-12T11:54:40;8.10;;;5.00;;
13335;SDS011;6737;51.480;11.962;2022-11-12T11:57:17;6.53;;;5.37;;
13335;SDS011;6737;51.480;11.962;2022-11-12T12:05:43;8.30;;;5.30;;
13335;SDS011;6737;51.480;11.962;2022-11-12T12:09:17;7.00;;;5.13;;
13335;SDS011;6737;51.480;11.962;2022-11-12T12:11:40;9.20;;;5.30;;
13335;SDS011;6737;51.480;11.962;2022-11-12T12:23:22;6.47;;;4.93;;
13335;SDS011;6737;51.480;11.962;2022-11-12T12:25:52;7.63;;;5.20;;
13335;SDS011;6737;51.480;11.962;2022-11-12T12:30:54;8.33;;;5.67;;
13335;SDS011;6737;51.480;11.962;2022-11-12T12:36:17;8.27;;;4.70;;
13335;SDS011;6737;51.480;11.962;2022-11-12T12:39:12;7.93;;;5.63;;
13335;SDS011;6737;51.480;11.962;2022-11-12T12:44:24;10.63;;;5.77;;
13335;SDS011;6737;51.480;11.962;2022-11-12T12:47:14;7.63;;;4.93;;
13335;SDS011;6737;51.480;11.962;2022-11-12T12:49:42;8.10;;;5.00;;
13335;SDS011;6737;51.480;11.962;2022-11-12T12:52:13;9.07;;;5.47;;
13335;SDS011;6737;51.480;11.962;2022-11-12T13:00:24;8.77;;;5.60;;
13335;SDS011;6737;51.480;11.962;2022-11-12T13:03:04;7.93;;;5.70;;
13335;SDS011;6737;51.480;11.962;2022-11-12T13:05:34;7.90;;;5.93;;
13335;SDS011;6737;51.480;11.962;2022-11-12T13:08:07;7.77;;;5.37;;
13335;SDS011;6737;51.480;11.962;2022-11-12T13:15:48;8.93;;;6.00;;
13335;SDS011;6737;51.480;11.962;2022-11-12T13:21:16;10.83;;;6.43;;
13335;SDS011;6737;51.480;11.962;2022-11-12T13:23:45;9.23;;;6.17;;
13335;SDS011;6737;51.480;11.962;2022-11-12T13:31:42;9.10;;;5.93;;
13335;SDS011;6737;51.480;11.962;2022-11-12T13:34:28;9.53;;;5.97;;
13335;SDS011;6737;51.480;11.962;2022-11-12T13:36:59;8.67;;;6.07;;
13335;SDS011;6737;51.480;11.962;2022-11-12T13:39:28;9.60;;;6.30;;
13335;SDS011;6737;51.480;11.962;2022-11-12T13:41:59;10.30;;;6.83;;
13335;SDS011;6737;51.480;11.962;2022-11-12T13:44:51;10.87;;;6.17;;
13335;SDS011;6737;51.480;11.962;2022-11-12T13:47:19;9.07;;;6.50;;
13335;SDS011;6737;51.480;11.962;2022-11-12T13:49:48;10.73;;;6.37;;
13335;SDS011;6737;51.480;11.962;2022-11-12T13:52:14;9.40;;;6.80;;
13335;SDS011;6737;51.480;11.962;2022-11-12T13:54:43;8.37;;;6.03;;
13335;SDS011;6737;51.480;11.962;2022-11-12T13:57:44;10.20;;;6.77;;
13335;SDS011;6737;51.480;11.962;2022-11-12T14:02:43;9.87;;;6.87;;
13335;SDS011;6737;51.480;11.962;2022-11-12T14:05:14;9.60;;;6.33;;
13335;SDS011;6737;51.480;11.962;2022-11-12T14:08:05;11.00;;;6.07;;
13335;SDS011;6737;51.480;11.962;2022-11-12T14:10:53;11.20;;;6.63;;
13335;SDS011;6737;51.480;11.962;2022-11-12T14:21:15;10.20;;;6.37;;
13335;SDS011;6737;51.480;11.962;2022-11-12T14:23:43;11.70;;;6.70;;
13335;SDS011;6737;51.480;11.962;2022-11-12T14:26:11;6.90;;;5.40;;
13335;SDS011;6737;51.480;11.962;2022-11-12T14:28:38;10.80;;;6.63;;
13335;SDS011;6737;51.480;11.962;2022-11-12T14:31:12;10.27;;;6.43;;
13335;SDS011;6737;51.480;11.962;2022-11-12T14:33:39;9.30;;;6.10;;
13335;SDS011;6737;51.480;11.962;2022-11-12T14:36:11;9.37;;;6.07;;
13335;SDS011;6737;51.480;11.962;2022-11-12T14:38:44;10.10;;;6.20;;
13335;SDS011;6737;51.480;11.962;2022-11-12T14:41:31;10.97;;;6.00;;
13335;SDS011;6737;51.480;11.962;2022-11-12T14:44:01;10.47;;;5.57;;
13335;SDS011;6737;51.480;11.962;2022-11-12T14:46:35;9.63;;;5.57;;
13335;SDS011;6737;51.480;11.962;2022-11-12T14:49:13;9.53;;;6.20;;
13335;SDS011;6737;51.480;11.962;2022-11-12T14:51:54;7.83;;;5.37;;
13335;SDS011;6737;51.480;11.962;2022-11-12T14:54:30;10.80;;;6.13;;
13335;SDS011;6737;51.480;11.962;2022-11-12T14:57:01;9.13;;;5.57;;
13335;SDS011;6737;51.480;11.962;2022-11-12T14:59:28;7.77;;;5.30;;
13335;SDS011;6737;51.480;11.962;2022-11-12T15:04:43;11.03;;;6.73;;
13335;SDS011;6737;51.480;11.962;2022-11-12T15:07:26;7.90;;;5.67;;
13335;SDS011;6737;51.480;11.962;2022-11-12T15:09:54;8.90;;;5.50;;
13335;SDS011;6737;51.480;11.962;2022-11-12T15:12:30;11.47;;;5.87;;
13335;SDS011;6737;51.480;11.962;2022-11-12T15:15:08;9.47;;;6.10;;
13335;SDS011;6737;51.480;11.962;2022-11-12T15:17:43;11.67;;;7.10;;
13335;SDS011;6737;51.480;11.962;2022-11-12T15:20:12;8.73;;;6.27;;
13335;SDS011;6737;51.480;11.962;2022-11-12T15:22:47;8.10;;;5.23;;
13335;SDS011;6737;51.480;11.962;2022-11-12T15:25:28;7.97;;;5.67;;
13335;SDS011;6737;51.480;11.962;2022-11-12T15:27:55;8.77;;;5.37;;
13335;SDS011;6737;51.480;11.962;2022-11-12T15:30:36;9.37;;;5.60;;
13335;SDS011;6737;51.480;11.962;2022-11-12T15:35:38;9.27;;;5.13;;
13335;SDS011;6737;51.480;11.962;2022-11-12T15:38:12;8.27;;;4.87;;
13335;SDS011;6737;51.480;11.962;2022-11-12T15:41:00;8.93;;;5.40;;
13335;SDS011;6737;51.480;11.962;2022-11-12T15:43:27;9.90;;;5.83;;
13335;SDS011;6737;51.480;11.962;2022-11-12T15:45:56;10.07;;;5.70;;
13335;SDS011;6737;51.480;11.962;2022-11-12T15:48:22;8.20;;;5.40;;
13335;SDS011;6737;51.480;11.962;2022-11-12T15:50:48;9.07;;;5.70;;
13335;SDS011;6737;51.480;11.962;2022-11-12T15:53:14;8.10;;;5.97;;
13335;SDS011;6737;51.480;11.962;2022-11-12T15:55:40;9.90;;;5.67;;
13335;SDS011;6737;51.480;11.962;2022-11-12T15:58:10;8.60;;;5.57;;
13335;SDS011;6737;51.480;11.962;2022-11-12T16:00:46;9.40;;;5.87;;
13335;SDS011;6737;51.480;11.962;2022-11-12T16:05:39;10.10;;;6.63;;
13335;SDS011;6737;51.480;11.962;2022-11-12T16:08:06;10.93;;;6.43;;
13335;SDS011;6737;51.480;11.962;2022-11-12T16:10:32;9.10;;;6.63;;
13335;SDS011;6737;51.480;11.962;2022-11-12T16:12:58;10.10;;;6.43;;
13335;SDS011;6737;51.480;11.962;2022-11-12T16:15:26;10.00;;;5.97;;
13335;SDS011;6737;51.480;11.962;2022-11-12T16:17:52;10.73;;;6.20;;
13335;SDS011;6737;51.480;11.962;2022-11-12T16:20:24;8.53;;;5.57;;
13335;SDS011;6737;51.480;11.962;2022-11-12T16:22:53;9.07;;;5.83;;
13335;SDS011;6737;51.480;11.962;2022-11-12T16:25:19;9.63;;;6.00;;
13335;SDS011;6737;51.480;11.962;2022-11-12T16:27:46;9.70;;;6.03;;
13335;SDS011;6737;51.480;11.962;2022-11-12T16:30:12;10.33;;;6.80;;
13335;SDS011;6737;51.480;11.962;2022-11-12T16:32:42;12.57;;;7.43;;
13335;SDS011;6737;51.480;11.962;2022-11-12T16:35:08;17.37;;;7.83;;
13335;SDS011;6737;51.480;11.962;2022-11-12T16:37:34;10.93;;;7.57;;
13335;SDS011;6737;51.480;11.962;2022-11-12T16:40:03;10.70;;;7.00;;
13335;SDS011;6737;51.480;11.962;2022-11-12T16:42:30;13.43;;;7.07;;
13335;SDS011;6737;51.480;11.962;2022-11-12T16:44:55;11.53;;;6.97;;
13335;SDS011;6737;51.480;11.962;2022-11-12T16:47:21;12.70;;;7.23;;
13335;SDS011;6737;51.480;11.962;2022-11-12T16:49:47;13.47;;;7.03;;
13335;SDS011;6737;51.480;11.962;2022-11-12T16:52:13;9.47;;;7.03;;